Time;durP1;ratioP1;P1;durP2;ratioP2;P2;SDS_P1;SDS_P2;PMS_P1;PMS_P2;Temp;Humidity;BMP_temperature;BMP_pressure;BME280_temperature;BME280_humidity;BME280_pressure;Samples;Min_cycle;Max_cycle;Signal;HPM_P1;HPM_P2
2022/06/27 00:01:17;;;;;;;0.50;0.50;;;20.30;99.90;;;;;;5073159;28;20222;-66
2022/06/27 00:03:44;;;;;;;0.52;0.52;;;20.30;99.90;;;;;;5072634;28;20222;-65
2022/06/27 00:06:11;;;;;;;0.50;0.50;;;20.20;99.90;;;;;;5072642;28;20286;-65
2022/06/27 00:08:38;;;;;;;0.40;0.40;;;20.20;99.90;;;;;;5071616;28;20306;-63
2022/06/27 00:11:05;;;;;;;0.80;0.40;;;20.00;99.90;;;;;;5068345;28;20739;-65
2022/06/27 00:13:33;;;;;;;0.50;0.50;;;20.00;99.90;;;;;;5074263;28;20234;-65
2022/06/27 00:16:00;;;;;;;0.30;0.30;;;20.00;99.90;;;;;;5071835;28;20229;-65
2022/06/27 00:18:27;;;;;;;0.27;0.27;;;19.80;99.90;;;;;;5074473;28;20238;-66
2022/06/27 00:20:54;;;;;;;0.50;0.50;;;19.80;99.90;;;;;;5074243;28;20258;-66
2022/06/27 00:23:21;;;;;;;0.30;0.30;;;19.80;99.90;;;;;;5074374;28;20639;-67
2022/06/27 00:25:48;;;;;;;0.35;0.35;;;19.80;99.90;;;;;;5074603;28;20212;-67
2022/06/27 00:28:15;;;;;;;0.30;0.30;;;19.80;99.90;;;;;;5073166;28;20681;-63
2022/06/27 00:30:44;;;;;;;0.30;0.30;;;19.80;99.90;;;;;;5073726;28;20227;-66
2022/06/27 00:33:10;;;;;;;0.40;0.40;;;19.80;99.90;;;;;;5069274;28;20660;-64
2022/06/27 00:35:37;;;;;;;0.40;0.40;;;19.80;99.90;;;;;;5066492;28;20210;-64
2022/06/27 00:38:04;;;;;;;0.23;0.23;;;19.80;99.90;;;;;;5072996;28;20199;-66
2022/06/27 00:40:31;;;;;;;0.50;0.30;;;19.80;99.90;;;;;;5072336;28;20225;-65
2022/06/27 00:42:58;;;;;;;0.30;0.30;;;19.70;99.90;;;;;;5073710;28;20203;-63
2022/06/27 00:45:25;;;;;;;0.40;0.40;;;19.80;99.90;;;;;;5073701;28;20645;-67
2022/06/27 00:47:54;;;;;;;0.30;0.30;;;19.80;99.90;;;;;;5065476;28;20203;-64
2022/06/27 00:50:21;;;;;;;0.30;0.30;;;19.70;99.90;;;;;;5068467;28;20632;-63
2022/06/27 00:52:49;;;;;;;0.33;0.33;;;19.70;99.90;;;;;;5073618;28;20297;-64
2022/06/27 00:55:16;;;;;;;0.32;0.32;;;19.70;99.90;;;;;;5073908;28;20564;-66
2022/06/27 00:57:44;;;;;;;0.38;0.38;;;19.70;99.90;;;;;;5070311;28;20230;-62
2022/06/27 01:00:12;;;;;;;0.40;0.40;;;19.60;99.90;;;;;;5076164;28;20225;-66
2022/06/27 01:02:39;;;;;;;0.30;0.30;;;19.60;99.90;;;;;;5076940;28;20290;-63
2022/06/27 01:05:11;;;;;;;0.40;0.40;;;19.50;99.90;;;;;;5075815;28;20665;-66
2022/06/27 01:07:39;;;;;;;0.40;0.40;;;19.60;99.90;;;;;;5074487;28;20671;-64
2022/06/27 01:10:08;;;;;;;0.40;0.40;;;19.70;99.90;;;;;;5072895;28;20223;-66
2022/06/27 01:12:35;;;;;;;0.30;0.30;;;19.70;99.90;;;;;;5073213;28;20670;-66
2022/06/27 01:15:02;;;;;;;0.40;0.40;;;19.70;99.90;;;;;;5073281;28;20203;-66
2022/06/27 01:17:29;;;;;;;0.30;0.30;;;19.70;99.90;;;;;;5072413;28;20203;-66
2022/06/27 01:19:56;;;;;;;0.50;0.50;;;19.80;99.90;;;;;;5072247;28;20204;-64
2022/06/27 01:22:24;;;;;;;0.30;0.30;;;19.90;99.90;;;;;;5072875;28;20199;-64
2022/06/27 01:24:51;;;;;;;0.43;0.43;;;20.00;99.90;;;;;;5073031;28;20231;-65
2022/06/27 01:27:18;;;;;;;0.20;0.20;;;20.10;99.90;;;;;;5072089;28;20203;-64
2022/06/27 01:29:45;;;;;;;0.50;0.50;;;20.10;99.90;;;;;;5064486;28;20204;-64
2022/06/27 01:32:12;;;;;;;0.40;0.40;;;20.20;99.90;;;;;;5069014;28;20766;-63
2022/06/27 01:34:39;;;;;;;0.47;0.47;;;20.20;99.90;;;;;;5072140;28;20290;-63
2022/06/27 01:37:06;;;;;;;0.40;0.40;;;20.20;99.90;;;;;;5072157;28;20293;-65
2022/06/27 01:39:35;;;;;;;0.50;0.50;;;20.20;99.90;;;;;;5072462;28;20985;-65
2022/06/27 01:42:03;;;;;;;0.50;0.50;;;20.10;99.90;;;;;;5066821;28;20226;-64
2022/06/27 01:44:32;;;;;;;0.60;0.60;;;20.20;99.90;;;;;;5072311;28;20205;-63
2022/06/27 01:47:04;;;;;;;0.50;0.47;;;20.10;99.90;;;;;;5071866;28;20780;-64
2022/06/27 01:49:33;;;;;;;0.50;0.50;;;20.20;99.90;;;;;;5072681;28;20290;-64
2022/06/27 01:52:01;;;;;;;0.43;0.40;;;20.20;99.90;;;;;;5072123;28;20223;-63
2022/06/27 01:54:29;;;;;;;0.50;0.50;;;20.20;99.90;;;;;;5061266;28;20206;-63
2022/06/27 01:56:57;;;;;;;0.40;0.40;;;20.20;99.90;;;;;;5071806;28;20206;-64
2022/06/27 01:59:28;;;;;;;0.55;0.55;;;20.20;99.90;;;;;;5072028;28;20658;-62
2022/06/27 02:01:58;;;;;;;0.50;0.50;;;20.10;99.90;;;;;;5072163;28;20263;-63
2022/06/27 02:04:26;;;;;;;0.40;0.40;;;20.10;99.90;;;;;;5072056;28;20287;-63
2022/06/27 02:06:53;;;;;;;0.57;0.50;;;20.00;99.90;;;;;;5071419;28;20282;-63
2022/06/27 02:09:20;;;;;;;0.40;0.40;;;20.10;99.90;;;;;;5072212;28;20298;-63
2022/06/27 02:11:51;;;;;;;0.88;0.60;;;20.00;99.90;;;;;;5071951;28;20235;-65
2022/06/27 02:14:20;;;;;;;0.60;0.60;;;20.00;99.90;;;;;;5068676;28;20646;-65
2022/06/27 02:16:47;;;;;;;0.40;0.40;;;20.00;99.90;;;;;;5064044;28;20306;-63
2022/06/27 02:19:17;;;;;;;0.40;0.40;;;19.90;99.90;;;;;;5072653;28;20205;-63
2022/06/27 02:21:44;;;;;;;0.55;0.55;;;19.80;99.90;;;;;;5071920;28;20223;-64
2022/06/27 02:24:12;;;;;;;0.40;0.40;;;19.80;99.90;;;;;;5072533;28;20290;-63
2022/06/27 02:26:39;;;;;;;0.50;0.50;;;19.70;99.90;;;;;;5071366;28;20577;-63
2022/06/27 02:29:06;;;;;;;0.47;0.47;;;19.70;99.90;;;;;;5072019;28;20294;-63
2022/06/27 02:31:43;;;;;;;0.43;0.43;;;19.60;99.90;;;;;;5071673;28;20223;-63
2022/06/27 02:34:12;;;;;;;0.30;0.30;;;19.70;99.90;;;;;;5070175;28;20195;-65
2022/06/27 02:36:41;;;;;;;0.45;0.45;;;19.60;99.90;;;;;;5070437;28;20772;-64
2022/06/27 02:39:08;;;;;;;0.37;0.37;;;19.50;99.90;;;;;;5071728;28;20684;-62
2022/06/27 02:41:39;;;;;;;0.40;0.40;;;19.50;99.90;;;;;;5071618;28;20221;-63
2022/06/27 02:44:07;;;;;;;0.50;0.50;;;19.60;99.90;;;;;;5071678;28;20195;-63
2022/06/27 02:46:36;;;;;;;0.50;0.50;;;19.60;99.90;;;;;;5070655;28;20229;-64
2022/06/27 02:49:04;;;;;;;0.60;0.60;;;19.60;99.90;;;;;;5071480;28;20724;-63
2022/06/27 02:51:36;;;;;;;0.40;0.40;;;19.60;99.90;;;;;;5071266;28;20229;-63
2022/06/27 02:54:08;;;;;;;0.40;0.40;;;19.60;99.90;;;;;;5071643;28;20226;-65
2022/06/27 02:56:41;;;;;;;1.23;0.40;;;19.60;99.90;;;;;;5070790;28;20239;-63
2022/06/27 02:59:12;;;;;;;0.30;0.30;;;19.50;99.90;;;;;;5071540;28;20195;-64
2022/06/27 03:01:43;;;;;;;0.50;0.40;;;19.50;99.90;;;;;;5071334;28;20242;-63
2022/06/27 03:04:10;;;;;;;0.93;0.40;;;19.50;99.90;;;;;;5070480;28;20211;-63
2022/06/27 03:06:38;;;;;;;0.40;0.40;;;19.40;99.90;;;;;;5070321;28;20207;-65
2022/06/27 03:09:05;;;;;;;0.30;0.30;;;19.30;99.90;;;;;;5071084;28;20210;-65
2022/06/27 03:11:32;;;;;;;0.37;0.37;;;19.30;99.90;;;;;;5070986;28;20689;-64
2022/06/27 03:13:59;;;;;;;0.83;0.50;;;19.20;99.90;;;;;;5071360;28;20203;-63
2022/06/27 03:16:27;;;;;;;0.40;0.40;;;19.20;99.90;;;;;;5070978;28;20207;-65
2022/06/27 03:18:56;;;;;;;0.40;0.40;;;19.20;99.90;;;;;;5071284;28;20295;-64
2022/06/27 03:21:23;;;;;;;0.50;0.50;;;19.20;99.90;;;;;;5080286;28;20227;-63
2022/06/27 03:23:50;;;;;;;0.50;0.50;;;19.20;99.90;;;;;;5074469;28;20286;-64
2022/06/27 03:26:18;;;;;;;0.47;0.47;;;19.20;99.90;;;;;;5071120;28;20298;-63
2022/06/27 03:28:45;;;;;;;0.30;0.30;;;19.30;99.90;;;;;;5067401;28;20282;-62
2022/06/27 03:31:13;;;;;;;0.30;0.30;;;19.40;99.90;;;;;;5070921;28;20270;-64
2022/06/27 03:33:40;;;;;;;0.40;0.33;;;19.30;99.90;;;;;;5070712;28;20215;-64
2022/06/27 03:36:09;;;;;;;0.40;0.40;;;19.30;99.90;;;;;;5071060;28;20803;-64
2022/06/27 03:38:36;;;;;;;0.80;0.40;;;19.40;99.90;;;;;;5069859;28;20211;-64
2022/06/27 03:41:03;;;;;;;0.40;0.40;;;19.40;99.90;;;;;;5064983;28;20250;-64
2022/06/27 03:43:30;;;;;;;0.37;0.37;;;19.40;99.90;;;;;;5070977;28;20320;-64
2022/06/27 03:45:57;;;;;;;0.43;0.43;;;19.30;99.90;;;;;;5070899;28;20202;-64
2022/06/27 03:51:10;;;;;;;0.73;0.40;;;19.40;99.90;;;;;;5070285;28;20724;-63
2022/06/27 03:53:37;;;;;;;0.37;0.30;;;19.40;99.90;;;;;;5070829;28;20203;-63
2022/06/27 03:56:05;;;;;;;0.50;0.50;;;19.40;99.90;;;;;;5070671;28;20656;-63
2022/06/27 03:58:32;;;;;;;0.73;0.73;;;19.50;99.90;;;;;;5069889;28;20726;-64
2022/06/27 04:00:59;;;;;;;0.83;0.83;;;19.60;99.90;;;;;;5070543;28;20243;-63
2022/06/27 04:03:25;;;;;;;1.00;0.67;;;19.60;99.90;;;;;;5070690;28;20233;-64
2022/06/27 04:05:52;;;;;;;0.80;0.80;;;19.60;99.90;;;;;;5070403;28;20203;-64
2022/06/27 04:08:21;;;;;;;0.50;0.50;;;19.50;99.90;;;;;;5069712;28;20207;-63
2022/06/27 04:10:47;;;;;;;0.53;0.53;;;19.50;99.90;;;;;;5062660;28;20310;-63
2022/06/27 04:13:14;;;;;;;0.50;0.50;;;19.50;99.90;;;;;;5070866;28;20210;-64
2022/06/27 04:15:41;;;;;;;0.40;0.40;;;19.40;99.90;;;;;;5072918;28;20658;-64
2022/06/27 04:18:08;;;;;;;0.40;0.40;;;19.40;99.90;;;;;;5072477;28;20210;-63
2022/06/27 04:20:35;;;;;;;0.40;0.40;;;19.40;99.90;;;;;;5071455;28;20358;-65
2022/06/27 04:23:02;;;;;;;0.57;0.57;;;19.50;99.90;;;;;;5069286;28;20882;-65
2022/06/27 04:25:30;;;;;;;0.30;0.30;;;19.50;99.90;;;;;;5078310;28;20282;-63
2022/06/27 04:27:58;;;;;;;0.43;0.43;;;19.70;99.90;;;;;;5075959;28;20199;-64
2022/06/27 04:30:25;;;;;;;0.50;0.50;;;19.80;99.90;;;;;;5075602;28;20226;-65
2022/06/27 04:32:52;;;;;;;0.40;0.40;;;19.80;99.90;;;;;;5073413;28;20226;-64
2022/06/27 04:35:19;;;;;;;0.30;0.30;;;19.80;99.90;;;;;;5073434;28;20264;-64
2022/06/27 04:37:47;;;;;;;0.30;0.30;;;19.80;99.90;;;;;;5071955;28;20294;-65
2022/06/27 04:40:17;;;;;;;0.60;0.60;;;19.90;99.90;;;;;;5072007;28;20216;-64
2022/06/27 04:42:48;;;;;;;0.30;0.30;;;20.00;99.90;;;;;;5071977;28;20275;-64
2022/06/27 04:45:15;;;;;;;0.50;0.50;;;20.00;99.90;;;;;;5063384;28;20212;-63
2022/06/27 04:47:43;;;;;;;0.60;0.60;;;19.90;99.90;;;;;;5072338;28;20721;-65
2022/06/27 04:50:13;;;;;;;0.60;0.60;;;19.80;99.90;;;;;;5073203;28;20584;-65
2022/06/27 04:52:40;;;;;;;0.53;0.53;;;19.70;99.90;;;;;;5070368;28;20629;-63
2022/06/27 04:55:09;;;;;;;0.53;0.53;;;19.70;99.90;;;;;;5068523;28;20298;-63
2022/06/27 04:57:37;;;;;;;0.80;0.80;;;19.60;99.90;;;;;;5072674;28;20296;-64
2022/06/27 05:00:08;;;;;;;0.60;0.60;;;19.60;99.90;;;;;;5073056;28;20717;-64
2022/06/27 05:02:35;;;;;;;0.53;0.53;;;19.50;99.90;;;;;;5073197;28;20682;-63
2022/06/27 05:05:02;;;;;;;0.70;0.70;;;19.50;99.90;;;;;;5073575;28;20227;-64
2022/06/27 05:07:30;;;;;;;0.57;0.50;;;19.60;99.90;;;;;;5072862;28;20207;-65
2022/06/27 05:09:57;;;;;;;1.80;0.63;;;19.60;99.90;;;;;;5074506;28;20199;-64
2022/06/27 05:12:25;;;;;;;0.57;0.57;;;19.60;99.90;;;;;;5072825;28;20218;-63
2022/06/27 05:14:52;;;;;;;0.60;0.60;;;19.70;99.90;;;;;;5073151;28;20295;-63
2022/06/27 05:17:21;;;;;;;0.80;0.80;;;19.70;99.90;;;;;;5069809;28;20195;-63
2022/06/27 05:19:48;;;;;;;0.68;0.68;;;19.70;99.90;;;;;;5074469;28;20266;-64
2022/06/27 05:22:15;;;;;;;0.70;0.70;;;19.60;99.90;;;;;;5065961;28;20219;-64
2022/06/27 05:24:41;;;;;;;0.60;0.60;;;19.60;99.90;;;;;;5072945;28;20278;-64
2022/06/27 05:27:09;;;;;;;0.83;0.83;;;19.60;99.90;;;;;;5067615;28;20547;-66
2022/06/27 05:29:36;;;;;;;0.80;0.80;;;19.60;99.90;;;;;;5072946;28;20206;-65
2022/06/27 05:32:04;;;;;;;0.60;0.60;;;19.70;99.90;;;;;;5070312;28;20227;-65
2022/06/27 05:34:32;;;;;;;0.57;0.57;;;19.80;99.90;;;;;;5069563;28;20210;-65
2022/06/27 05:36:59;;;;;;;0.70;0.70;;;19.80;99.90;;;;;;5071856;28;20206;-64
2022/06/27 05:39:27;;;;;;;0.77;0.77;;;19.90;99.90;;;;;;5071576;28;20222;-64
2022/06/27 05:41:54;;;;;;;0.60;0.60;;;19.90;99.90;;;;;;5065763;28;20223;-65
2022/06/27 05:44:21;;;;;;;0.50;0.50;;;19.90;99.90;;;;;;5065182;28;20203;-65
2022/06/27 05:46:48;;;;;;;0.60;0.60;;;19.80;99.90;;;;;;5057540;28;20681;-65
2022/06/27 05:49:15;;;;;;;0.67;0.67;;;19.80;99.90;;;;;;5059885;28;20216;-65
2022/06/27 05:51:44;;;;;;;0.60;0.60;;;19.90;99.90;;;;;;5055577;28;20249;-65
2022/06/27 05:54:12;;;;;;;0.43;0.43;;;19.90;99.90;;;;;;5059201;28;20203;-64
2022/06/27 05:56:40;;;;;;;0.40;0.40;;;19.80;99.90;;;;;;5071643;28;20294;-65
2022/06/27 05:59:07;;;;;;;0.70;0.70;;;19.80;99.90;;;;;;5073002;28;20606;-66
2022/06/27 06:01:37;;;;;;;0.63;0.63;;;19.80;99.90;;;;;;5072778;28;20253;-63
2022/06/27 06:04:06;;;;;;;0.47;0.47;;;19.90;99.90;;;;;;5071886;28;20257;-63
2022/06/27 06:06:33;;;;;;;0.47;0.47;;;20.00;99.90;;;;;;5070929;28;20204;-65
2022/06/27 06:09:03;;;;;;;0.30;0.30;;;20.00;99.90;;;;;;5070468;28;20206;-64
2022/06/27 06:11:31;;;;;;;0.50;0.50;;;20.10;99.90;;;;;;5068720;28;20314;-63
2022/06/27 06:13:59;;;;;;;0.50;0.50;;;20.20;99.90;;;;;;5071935;28;20632;-64
2022/06/27 06:16:26;;;;;;;0.57;0.57;;;20.30;99.90;;;;;;5071226;28;20580;-65
2022/06/27 06:18:55;;;;;;;0.65;0.65;;;20.30;99.90;;;;;;5072337;28;20204;-65
2022/06/27 06:21:23;;;;;;;0.67;0.67;;;20.40;99.90;;;;;;5073571;28;20384;-64
2022/06/27 06:23:51;;;;;;;1.00;1.00;;;20.40;99.90;;;;;;5072908;28;20239;-64
2022/06/27 06:26:19;;;;;;;0.70;0.70;;;20.20;99.90;;;;;;5073236;28;20242;-65
2022/06/27 06:28:48;;;;;;;0.60;0.60;;;20.40;99.90;;;;;;5071600;28;20283;-65
2022/06/27 06:31:21;;;;;;;0.50;0.50;;;20.40;99.90;;;;;;5072108;28;20222;-64
2022/06/27 06:33:48;;;;;;;0.40;0.40;;;20.50;99.90;;;;;;5070654;28;20257;-65
2022/06/27 06:36:15;;;;;;;0.50;0.50;;;20.50;99.90;;;;;;5071794;28;20245;-65
2022/06/27 06:38:42;;;;;;;0.50;0.50;;;20.60;99.90;;;;;;5069962;28;20200;-65
2022/06/27 06:41:09;;;;;;;0.60;0.60;;;20.70;99.90;;;;;;5071571;28;20689;-65
2022/06/27 06:43:38;;;;;;;0.40;0.40;;;20.60;99.90;;;;;;5071346;28;20195;-65
2022/06/27 06:46:05;;;;;;;0.37;0.37;;;20.50;99.90;;;;;;5059483;28;20211;-66
2022/06/27 06:48:32;;;;;;;0.30;0.30;;;20.50;99.90;;;;;;5068980;28;20298;-65
2022/06/27 06:51:00;;;;;;;0.60;0.60;;;20.50;99.90;;;;;;5071230;28;20230;-66
2022/06/27 06:53:27;;;;;;;0.33;0.33;;;20.40;99.90;;;;;;5071827;28;20223;-63
2022/06/27 06:55:57;;;;;;;0.47;0.47;;;20.40;99.90;;;;;;5071392;28;20289;-64
2022/06/27 06:58:25;;;;;;;0.40;0.40;;;20.40;99.90;;;;;;5070818;28;20672;-64
2022/06/27 07:00:54;;;;;;;0.40;0.40;;;20.40;99.90;;;;;;5070594;28;20251;-63
2022/06/27 07:03:21;;;;;;;0.40;0.40;;;20.50;99.90;;;;;;5071220;28;20669;-64
2022/06/27 07:05:48;;;;;;;0.40;0.40;;;20.50;99.90;;;;;;5071587;28;20580;-65
2022/06/27 07:08:15;;;;;;;0.33;0.33;;;20.50;99.90;;;;;;5070261;28;20199;-65
2022/06/27 07:10:42;;;;;;;2.20;0.73;;;20.50;99.90;;;;;;5070922;28;20223;-65
2022/06/27 07:13:10;;;;;;;0.50;0.50;;;20.50;99.90;;;;;;5070855;28;20812;-65
2022/06/27 07:15:38;;;;;;;0.40;0.40;;;20.40;99.90;;;;;;5071601;28;20230;-64
2022/06/27 07:18:08;;;;;;;0.70;0.70;;;20.40;99.90;;;;;;5070560;28;20222;-64
2022/06/27 07:20:35;;;;;;;0.60;0.60;;;20.40;99.90;;;;;;5070957;28;20679;-65
2022/06/27 07:23:02;;;;;;;0.40;0.40;;;20.40;99.90;;;;;;5071004;28;20203;-63
2022/06/27 07:25:29;;;;;;;0.40;0.40;;;20.40;99.90;;;;;;5071067;28;20206;-65
2022/06/27 07:27:59;;;;;;;0.70;0.70;;;20.50;99.90;;;;;;5070241;28;20563;-64
2022/06/27 07:30:26;;;;;;;0.60;0.60;;;20.40;99.90;;;;;;5070915;28;20319;-64
2022/06/27 07:32:53;;;;;;;0.50;0.50;;;20.30;99.90;;;;;;5071280;28;20243;-65
2022/06/27 07:35:22;;;;;;;0.60;0.60;;;20.40;99.90;;;;;;5070898;28;20245;-64
2022/06/27 07:37:51;;;;;;;0.60;0.60;;;20.40;99.90;;;;;;5070489;28;20234;-64
2022/06/27 07:40:20;;;;;;;0.60;0.60;;;20.50;99.90;;;;;;5070404;28;20225;-64
2022/06/27 07:42:48;;;;;;;0.70;0.70;;;20.50;99.90;;;;;;5067132;28;20211;-65
2022/06/27 07:45:16;;;;;;;0.90;0.85;;;20.60;99.90;;;;;;5066558;28;20231;-64
2022/06/27 07:47:43;;;;;;;0.65;0.65;;;20.70;99.90;;;;;;5064094;28;20671;-66
2022/06/27 07:50:36;;;;;;;0.70;0.70;;;20.80;99.90;;;;;;5074081;28;20240;-65
2022/06/27 07:53:15;;;;;;;0.60;0.60;;;20.90;99.90;;;;;;5076201;28;20226;-64
2022/06/27 07:55:44;;;;;;;0.63;0.63;;;20.90;99.90;;;;;;5075060;28;20217;-64
2022/06/27 07:58:14;;;;;;;0.53;0.53;;;20.90;99.90;;;;;;5062881;28;20207;-64
2022/06/27 08:00:41;;;;;;;0.50;0.50;;;21.00;99.90;;;;;;5073735;28;20238;-64
2022/06/27 08:05:48;;;;;;;0.70;0.70;;;21.00;99.90;;;;;;5070036;28;20256;-65
2022/06/27 08:08:17;;;;;;;0.60;0.60;;;21.00;99.90;;;;;;5074423;28;20207;-64
2022/06/27 08:10:44;;;;;;;0.60;0.60;;;21.00;99.90;;;;;;5077721;28;20223;-64
2022/06/27 08:13:12;;;;;;;0.60;0.60;;;21.00;99.90;;;;;;5073493;28;20219;-65
2022/06/27 08:15:40;;;;;;;0.67;0.67;;;21.00;99.90;;;;;;5069508;28;20218;-64
2022/06/27 08:18:07;;;;;;;0.60;0.60;;;21.00;99.90;;;;;;5061189;28;20260;-65
2022/06/27 08:20:35;;;;;;;0.73;0.73;;;21.10;99.90;;;;;;5073672;28;20766;-63
2022/06/27 08:23:02;;;;;;;0.68;0.68;;;21.10;99.90;;;;;;5066602;28;20677;-64
2022/06/27 08:25:33;;;;;;;0.68;0.68;;;21.30;99.90;;;;;;5061008;28;20261;-66
2022/06/27 08:27:59;;;;;;;0.53;0.53;;;21.50;99.90;;;;;;5072027;28;20204;-64
2022/06/27 08:30:27;;;;;;;0.68;0.68;;;21.60;99.90;;;;;;5073620;28;20750;-64
2022/06/27 08:32:56;;;;;;;0.60;0.60;;;21.70;99.90;;;;;;5074523;28;20219;-65
2022/06/27 08:35:23;;;;;;;0.70;0.70;;;21.70;99.90;;;;;;5074264;28;20210;-65
2022/06/27 08:37:50;;;;;;;0.70;0.70;;;21.70;99.90;;;;;;5074878;28;20199;-64
2022/06/27 08:40:18;;;;;;;0.70;0.70;;;21.50;99.90;;;;;;5073926;28;20227;-65
2022/06/27 08:42:48;;;;;;;0.60;0.60;;;21.50;99.90;;;;;;5073726;28;20227;-64
2022/06/27 08:45:17;;;;;;;0.60;0.60;;;21.70;99.90;;;;;;5073802;28;20203;-65
2022/06/27 08:47:44;;;;;;;0.70;0.70;;;21.80;99.90;;;;;;5073085;28;20289;-64
2022/06/27 08:50:12;;;;;;;0.50;0.50;;;22.00;99.90;;;;;;5073377;28;20223;-65
2022/06/27 08:52:40;;;;;;;0.80;0.80;;;22.20;99.90;;;;;;5073971;28;20588;-65
2022/06/27 08:55:08;;;;;;;0.63;0.63;;;22.70;99.90;;;;;;5073168;28;20232;-65
2022/06/27 08:57:39;;;;;;;0.57;0.57;;;23.10;99.90;;;;;;5072366;28;20219;-66
2022/06/27 09:00:09;;;;;;;0.67;0.67;;;23.20;99.90;;;;;;5073712;28;20339;-62
2022/06/27 09:02:42;;;;;;;0.70;0.70;;;23.10;99.90;;;;;;5072168;28;20723;-64
2022/06/27 09:05:17;;;;;;;0.70;0.70;;;23.10;99.90;;;;;;5073465;28;20642;-64
2022/06/27 09:07:49;;;;;;;0.70;0.70;;;23.40;99.90;;;;;;5072796;28;20380;-65
2022/06/27 09:10:27;;;;;;;0.60;0.60;;;23.60;99.90;;;;;;5070285;28;20226;-64
2022/06/27 09:12:55;;;;;;;0.80;0.70;;;23.60;99.90;;;;;;5066248;28;20219;-65
2022/06/27 09:15:27;;;;;;;0.50;0.50;;;23.60;99.90;;;;;;5072435;28;20199;-64
2022/06/27 09:18:04;;;;;;;0.65;0.65;;;23.70;99.90;;;;;;5068879;28;20554;-65
2022/06/27 09:20:46;;;;;;;0.65;0.65;;;23.60;99.90;;;;;;5071447;28;20234;-65
2022/06/27 09:23:35;;;;;;;0.70;0.70;;;23.40;99.90;;;;;;5068723;28;20225;-64
2022/06/27 09:26:05;;;;;;;0.50;0.50;;;23.20;99.90;;;;;;5066662;28;20200;-64
2022/06/27 09:28:44;;;;;;;0.70;0.70;;;23.10;99.90;;;;;;5065278;28;20227;-65
2022/06/27 09:31:28;;;;;;;0.60;0.60;;;23.00;99.90;;;;;;5068115;28;20255;-65
2022/06/27 09:34:02;;;;;;;0.60;0.60;;;22.80;99.90;;;;;;5069422;28;20246;-66
2022/06/27 09:36:31;;;;;;;0.60;0.60;;;22.70;99.90;;;;;;5070753;28;20199;-65
2022/06/27 09:38:59;;;;;;;0.60;0.60;;;22.60;99.90;;;;;;5063009;28;20203;-65
2022/06/27 09:41:29;;;;;;;0.53;0.53;;;22.50;99.90;;;;;;5072152;28;20306;-64
2022/06/27 09:44:02;;;;;;;0.38;0.38;;;22.30;99.90;;;;;;5072856;28;20657;-66
2022/06/27 09:46:35;;;;;;;0.40;0.40;;;22.20;99.90;;;;;;5071971;28;20662;-64
2022/06/27 09:49:05;;;;;;;0.50;0.50;;;22.20;99.90;;;;;;5072370;28;20207;-65
2022/06/27 09:51:35;;;;;;;0.40;0.40;;;22.30;99.90;;;;;;5062067;28;20249;-64
2022/06/27 09:54:10;;;;;;;0.50;0.50;;;22.30;99.90;;;;;;5075242;28;20214;-63
2022/06/27 09:56:39;;;;;;;0.63;0.63;;;22.40;99.90;;;;;;5087217;28;20264;-64
2022/06/27 09:59:07;;;;;;;0.40;0.40;;;22.30;99.90;;;;;;5086607;28;20200;-64
2022/06/27 10:01:36;;;;;;;0.70;0.70;;;22.40;99.90;;;;;;5071651;28;20223;-67
2022/06/27 10:04:04;;;;;;;1.00;0.60;;;22.40;99.90;;;;;;5072631;28;20684;-64
2022/06/27 10:06:32;;;;;;;0.50;0.50;;;22.40;99.90;;;;;;5071424;28;20290;-64
2022/06/27 10:09:00;;;;;;;0.70;0.70;;;22.40;99.90;;;;;;5072385;28;20290;-64
2022/06/27 10:11:27;;;;;;;0.50;0.50;;;22.30;99.90;;;;;;5071980;28;20651;-65
2022/06/27 10:14:19;;;;;;;0.90;0.50;;;22.40;99.90;;;;;;5071621;28;20229;-64
2022/06/27 10:16:56;;;;;;;0.60;0.60;;;22.20;99.90;;;;;;5068049;28;20290;-64
2022/06/27 10:19:25;;;;;;;0.60;0.60;;;22.00;99.90;;;;;;5072281;28;20305;-64
2022/06/27 10:21:53;;;;;;;0.47;0.47;;;22.00;99.90;;;;;;5071671;28;20233;-64
2022/06/27 10:24:33;;;;;;;0.50;0.50;;;22.10;99.90;;;;;;5071744;28;20199;-65
2022/06/27 10:27:07;;;;;;;0.53;0.53;;;22.10;99.90;;;;;;5073067;28;20227;-65
2022/06/27 10:29:48;;;;;;;0.50;0.50;;;22.20;99.90;;;;;;5073574;28;20204;-64
2022/06/27 10:32:43;;;;;;;0.60;0.60;;;22.30;99.90;;;;;;5068868;28;20294;-66
2022/06/27 10:35:12;;;;;;;0.73;0.73;;;22.30;99.90;;;;;;5068450;28;20720;-66
2022/06/27 10:37:40;;;;;;;0.47;0.47;;;22.40;99.90;;;;;;5071300;28;20209;-65
2022/06/27 10:40:53;;;;;;;0.50;0.50;;;22.40;99.90;;;;;;5071664;28;20253;-65
2022/06/27 10:43:45;;;;;;;0.60;0.60;;;22.50;99.90;;;;;;5068131;28;20537;-65
2022/06/27 10:46:43;;;;;;;0.70;0.70;;;22.70;99.90;;;;;;5070718;28;20207;-65
2022/06/27 10:49:35;;;;;;;0.73;0.73;;;22.80;99.90;;;;;;5067563;28;20278;-65
2022/06/27 10:52:32;;;;;;;0.70;0.70;;;22.70;99.90;;;;;;5054146;28;20306;-65
2022/06/27 10:54:59;;;;;;;0.50;0.50;;;22.40;99.90;;;;;;5071094;28;20287;-64
2022/06/27 10:57:46;;;;;;;0.60;0.60;;;22.20;99.90;;;;;;5070781;28;20294;-62
2022/06/27 11:00:39;;;;;;;0.50;0.50;;;22.00;99.90;;;;;;5071512;28;20841;-64
2022/06/27 11:03:06;;;;;;;0.60;0.60;;;22.00;99.90;;;;;;5070775;28;20223;-64
2022/06/27 11:05:53;;;;;;;0.70;0.70;;;22.00;99.90;;;;;;5071384;28;20872;-65
2022/06/27 11:08:20;;;;;;;0.67;0.67;;;22.00;99.90;;;;;;5071031;28;20680;-64
2022/06/27 11:10:47;;;;;;;0.70;0.70;;;22.00;99.90;;;;;;5071658;28;20230;-65
2022/06/27 11:13:39;;;;;;;0.60;0.60;;;22.00;99.90;;;;;;5071956;28;20220;-64
2022/06/27 11:16:07;;;;;;;0.40;0.40;;;21.90;99.90;;;;;;5065616;28;20286;-64
2022/06/27 11:18:46;;;;;;;0.50;0.50;;;21.90;99.90;;;;;;5071115;28;20203;-62
2022/06/27 11:21:15;;;;;;;0.47;0.47;;;21.90;99.90;;;;;;5071264;28;20227;-64
2022/06/27 11:23:57;;;;;;;0.67;0.67;;;21.90;99.90;;;;;;5070894;28;20201;-67
2022/06/27 11:26:26;;;;;;;0.65;0.65;;;21.90;99.90;;;;;;5074081;28;20206;-64
2022/06/27 11:34:24;;;;;;;0.50;0.50;;;22.00;99.90;;;;;;5075812;28;20858;-64
2022/06/27 11:36:53;;;;;;;0.53;0.53;;;22.10;99.90;;;;;;5071161;28;20688;-64
2022/06/27 11:39:24;;;;;;;0.52;0.52;;;22.10;99.90;;;;;;5075271;28;20261;-67
2022/06/27 11:41:56;;;;;;;0.50;0.50;;;22.20;99.90;;;;;;5065866;28;20223;-65
2022/06/27 11:44:23;;;;;;;0.55;0.55;;;22.30;99.90;;;;;;5068330;28;20202;-65
2022/06/27 11:46:52;;;;;;;0.70;0.70;;;22.40;99.90;;;;;;5064036;28;20199;-65
2022/06/27 11:49:28;;;;;;;0.80;0.80;;;22.50;99.90;;;;;;5063364;28;20253;-65
2022/06/27 11:52:00;;;;;;;0.37;0.37;;;22.60;99.90;;;;;;5056633;28;20233;-64
2022/06/27 11:54:37;;;;;;;0.43;0.43;;;22.80;99.90;;;;;;5060607;28;20222;-63
2022/06/27 11:57:05;;;;;;;0.67;0.67;;;22.90;99.90;;;;;;5065376;28;20199;-64
2022/06/27 11:59:32;;;;;;;0.97;0.80;;;23.10;99.90;;;;;;5060828;28;20681;-64
2022/06/27 12:02:01;;;;;;;0.40;0.40;;;23.10;99.90;;;;;;5060230;28;20227;-65
2022/06/27 12:04:32;;;;;;;0.60;0.60;;;23.10;99.90;;;;;;5062699;28;20670;-66
2022/06/27 12:07:08;;;;;;;0.40;0.40;;;23.10;99.90;;;;;;5071674;28;20284;-66
2022/06/27 12:09:48;;;;;;;0.70;0.70;;;23.10;99.90;;;;;;5073280;28;20689;-65
2022/06/27 12:12:18;;;;;;;0.67;0.60;;;23.20;99.90;;;;;;5070548;28;20732;-66
2022/06/27 12:14:48;;;;;;;0.43;0.43;;;23.10;99.90;;;;;;5077542;28;20221;-63
2022/06/27 12:17:15;;;;;;;0.43;0.43;;;23.10;99.90;;;;;;5073336;28;20211;-65
2022/06/27 12:19:43;;;;;;;0.50;0.50;;;23.00;99.90;;;;;;5073024;28;20206;-66
2022/06/27 12:22:13;;;;;;;0.43;0.43;;;22.90;99.90;;;;;;5072465;28;20318;-64
2022/06/27 12:24:40;;;;;;;0.50;0.50;;;23.00;99.90;;;;;;5073236;28;20202;-64
2022/06/27 12:27:08;;;;;;;0.47;0.47;;;23.10;99.90;;;;;;5072603;28;20203;-65
2022/06/27 12:29:35;;;;;;;0.50;0.50;;;23.00;99.90;;;;;;5078667;28;20210;-64
2022/06/27 12:32:02;;;;;;;1.80;0.67;;;23.10;99.90;;;;;;5071576;28;20219;-66
2022/06/27 12:34:30;;;;;;;0.50;0.50;;;23.00;99.90;;;;;;5079173;28;20329;-65
2022/06/27 12:36:57;;;;;;;0.60;0.60;;;23.10;99.90;;;;;;5076815;28;20205;-64
2022/06/27 12:39:28;;;;;;;0.40;0.40;;;23.00;99.90;;;;;;5072980;28;20222;-62
2022/06/27 12:41:55;;;;;;;0.50;0.50;;;23.10;99.90;;;;;;5074300;28;20223;-66
2022/06/27 12:44:22;;;;;;;0.50;0.50;;;23.20;99.90;;;;;;5068840;28;20283;-65
2022/06/27 12:46:49;;;;;;;0.50;0.50;;;23.30;99.90;;;;;;5064611;28;20207;-65
2022/06/27 12:49:15;;;;;;;0.55;0.55;;;23.40;99.90;;;;;;5070458;28;20302;-65
2022/06/27 12:51:42;;;;;;;0.60;0.60;;;23.50;99.90;;;;;;5068953;28;20250;-65
2022/06/27 12:54:09;;;;;;;0.63;0.63;;;23.40;99.90;;;;;;5072815;28;20216;-64
2022/06/27 12:56:38;;;;;;;0.50;0.50;;;23.30;99.90;;;;;;5069352;28;20235;-65
2022/06/27 12:59:05;;;;;;;0.50;0.50;;;23.20;99.90;;;;;;5070425;28;20210;-66
2022/06/27 13:01:31;;;;;;;0.50;0.50;;;23.20;99.90;;;;;;5070355;28;20901;-65
2022/06/27 13:03:59;;;;;;;0.50;0.50;;;23.20;99.90;;;;;;5065978;28;20210;-65
2022/06/27 13:06:26;;;;;;;0.47;0.47;;;23.20;99.90;;;;;;5070368;28;20238;-65
2022/06/27 13:08:53;;;;;;;0.50;0.50;;;23.10;99.90;;;;;;5064337;28;20242;-65
2022/06/27 13:11:19;;;;;;;0.43;0.43;;;23.10;99.90;;;;;;5070947;28;20219;-66